Flight Track Log - Related Links

Times and Time Zones

All times are in EDT time to prevent confusion due to time zone crossing. See the N816BG flight status page for this flight to view local times or setup timezone preferences in your user account.

Time Position Orientation Groundspeed Altitude Reporting Facility
EDT Latitude Longitude Course Direction KTS MPH feet Rate Location/Type
Mon 07:39:14 AM 42.8425 -85.3694 87° East 259 298 4,900  Level Cleveland Center
Mon 07:40:18 AM 42.8511 -85.2711 83° East 267 307 4,900 48 Level Chicago Center
Mon 07:41:20 AM 42.8594 -85.1706 84° East 267 307 5,000 48 Climbing Chicago Center
Mon 07:42:22 AM 42.8678 -85.0689 84° East 267 307 5,000  Level Chicago Center
Mon 07:43:00 AM 42.9036 -84.9522 87° East  Level FlightAware Approximate
Mon 07:43:23 AM 42.8778 -84.9492 83° East 267 307 5,000  Level Chicago Center
Mon 07:44:00 AM 42.9077 -84.8578 87° East  Level FlightAware Approximate
Mon 07:44:23 AM 42.8839 -84.8461 85° East 267 307 5,000  Level Cleveland Center
Mon 07:45:25 AM 42.8917 -84.7433 84° East 267 307 5,000  Level Cleveland Center
Mon 07:46:27 AM 42.8997 -84.6400 84° East 267 307 5,000  Level Cleveland Center
Mon 07:47:29 AM 42.9081 -84.5356 84° East 266 306 5,000  Level Cleveland Center
Mon 07:48:30 AM 42.9131 -84.4300 86° East 267 307 5,000 -146 Level Cleveland Center
Mon 07:49:32 AM 42.9203 -84.3319 84° East 266 306 4,700 -484 Descending Cleveland Center
Mon 07:50:34 AM 42.9281 -84.2306 84° East 256 295 4,000 -339 Descending Cleveland Center
Mon 07:51:36 AM 42.9336 -84.1447 85° East 235 270 4,000 -484 Level Cleveland Center
Mon 07:52:38 AM 42.9283 -84.0500 94° East 235 270 3,000 -484 Descending Cleveland Center
Mon 07:53:40 AM 42.9258 -83.9589 92° East 235 270 3,000 -242 Level Cleveland Center
Mon 07:54:42 AM 42.9222 -83.8678 93° East 234 269 2,500 -242 Descending Cleveland Center
Mon 07:55:44 AM 42.9197 -83.7781 92° East 232 267 2,500 -48 Level Cleveland Center
Mon 07:56:46 AM 42.9231 -83.6983 87° East 198 228 2,400 -290 Descending Cleveland Center
Mon 07:57:48 AM 42.9597 -83.6775 23° Northeast 170 196 1,900 -677 Descending Cleveland Center
Mon 07:58:50 AM 42.9697 -83.7228 287° West 145 167 1,000 -532 Descending Cleveland Center
Mon 07:59:52 AM 42.9681 -83.7806 268° West 142 163 800 -194 Descending Cleveland Center

Login

Don't have an account? Register now (free) for customized features, flight alerts, and more!